Аэропорт: Уйташ. Махачкала

ICAO: URML

METAR:
2021-01-19 11:30:00
URML 191130Z 02003MPS 9999 NSC M01/M06 Q1020 R32/01//70 NOSIG RMK QFE764/1019
METAR:
2021-01-19 08:00:00
TAF URML 190800Z 1909/1918 36005G10MPS 9999 BKN020 TXM00/1909Z TNM02/1914Z TEMPO 1911/1914 6000 -SN SCT011 OVC020 BECMG 1914/1915 VRB01MPS 4000 -SN BR TEMPO 1915/1918 2000 SN BR OVC006